Time;durP1;ratioP1;P1;durP2;ratioP2;P2;SDS_P1;SDS_P2;PMS_P1;PMS_P2;Temp;Humidity;BMP_temperature;BMP_pressure;BME280_temperature;BME280_humidity;BME280_pressure;Samples;Min_cycle;Max_cycle;Signal;HPM_P1;HPM_P2
2021/10/20 00:00:22;;;;;;;6.03;1.90;;;9.10;98.00;;;;;;5033451;28;20481;-66
2021/10/20 00:02:49;;;;;;;1.20;1.00;;;9.10;98.00;;;;;;5033547;28;20607;-65
2021/10/20 00:05:17;;;;;;;1.30;1.20;;;9.30;98.00;;;;;;5033296;28;20457;-66
2021/10/20 00:07:44;;;;;;;1.20;1.10;;;9.30;98.00;;;;;;5033220;28;20535;-65
2021/10/20 00:10:12;;;;;;;1.30;1.27;;;9.20;98.00;;;;;;5033270;28;20519;-65
2021/10/20 00:12:41;;;;;;;2.97;1.47;;;9.20;98.00;;;;;;5033176;28;20461;-66
2021/10/20 00:15:11;;;;;;;2.53;1.87;;;9.00;98.00;;;;;;5033181;28;20462;-66
2021/10/20 00:17:39;;;;;;;1.67;1.60;;;8.90;98.00;;;;;;5032594;28;20454;-66
2021/10/20 00:20:10;;;;;;;1.30;1.10;;;8.80;98.00;;;;;;5032965;28;20801;-69
2021/10/20 00:22:39;;;;;;;1.53;1.27;;;8.80;98.00;;;;;;5032966;28;20462;-65
2021/10/20 00:25:08;;;;;;;1.20;1.00;;;8.90;98.00;;;;;;5032944;28;20828;-66
2021/10/20 00:27:36;;;;;;;1.20;1.10;;;8.90;98.00;;;;;;5032936;28;20490;-65
2021/10/20 00:30:04;;;;;;;1.20;1.00;;;8.90;98.00;;;;;;5032779;28;20542;-66
2021/10/20 00:32:31;;;;;;;1.20;1.10;;;8.80;98.00;;;;;;5032934;28;20542;-66
2021/10/20 00:35:01;;;;;;;1.47;1.43;;;8.80;98.00;;;;;;5032801;28;20455;-66
2021/10/20 00:37:28;;;;;;;1.77;1.30;;;8.70;98.00;;;;;;5032695;28;20469;-65
2021/10/20 00:39:55;;;;;;;1.50;1.37;;;8.70;98.00;;;;;;5032742;28;20508;-66
2021/10/20 00:42:23;;;;;;;1.20;1.00;;;8.70;98.00;;;;;;5032331;28;20490;-66
2021/10/20 00:44:53;;;;;;;1.30;1.20;;;8.70;98.00;;;;;;5032653;28;20453;-66
2021/10/20 00:47:21;;;;;;;2.07;1.27;;;8.80;98.00;;;;;;5032762;28;20508;-65
2021/10/20 00:49:50;;;;;;;1.30;1.10;;;8.80;98.00;;;;;;5032592;28;20485;-66
2021/10/20 00:52:18;;;;;;;1.77;1.00;;;8.70;98.00;;;;;;5032427;28;20492;-65
2021/10/20 00:54:45;;;;;;;1.20;1.00;;;8.70;98.00;;;;;;5032396;28;20462;-65
2021/10/20 00:57:14;;;;;;;1.20;0.90;;;8.50;98.00;;;;;;5014881;28;20454;-65
2021/10/20 00:59:42;;;;;;;3.47;1.10;;;8.60;98.00;;;;;;5032484;28;20489;-65
2021/10/20 01:02:12;;;;;;;1.20;1.00;;;8.80;98.00;;;;;;5032244;28;20498;-66
2021/10/20 01:04:40;;;;;;;1.20;1.20;;;8.80;98.00;;;;;;5032347;28;20465;-65
2021/10/20 01:07:07;;;;;;;2.03;1.60;;;8.70;98.00;;;;;;5032393;28;20823;-65
2021/10/20 01:09:35;;;;;;;2.13;1.50;;;8.50;98.00;;;;;;5014794;28;20474;-65
2021/10/20 01:12:02;;;;;;;1.90;1.30;;;8.60;98.00;;;;;;5032434;28;20546;-66
2021/10/20 01:14:30;;;;;;;1.57;1.27;;;8.50;98.00;;;;;;5032311;28;20465;-65
2021/10/20 01:16:58;;;;;;;1.20;1.00;;;8.40;98.00;;;;;;5032399;28;20469;-65
2021/10/20 01:19:27;;;;;;;1.60;1.07;;;8.50;98.00;;;;;;5032048;28;20896;-66
2021/10/20 01:21:55;;;;;;;1.87;1.30;;;8.20;98.00;;;;;;5031985;28;20509;-65
2021/10/20 01:24:23;;;;;;;3.00;1.43;;;8.10;98.00;;;;;;5031972;28;20484;-66
2021/10/20 01:26:51;;;;;;;1.57;1.27;;;8.20;98.00;;;;;;5031925;28;20503;-65
2021/10/20 01:29:18;;;;;;;1.60;1.30;;;8.10;98.00;;;;;;5030873;28;20515;-65
2021/10/20 01:31:48;;;;;;;1.70;1.20;;;8.10;98.00;;;;;;5031817;28;20882;-66
2021/10/20 01:34:17;;;;;;;1.20;1.00;;;8.10;98.00;;;;;;5014144;28;20508;-65
2021/10/20 01:36:44;;;;;;;1.60;1.10;;;8.10;98.00;;;;;;5031777;28;20483;-65
2021/10/20 01:39:13;;;;;;;1.33;1.27;;;8.10;98.00;;;;;;5031619;28;20507;-66
2021/10/20 01:41:40;;;;;;;1.20;1.00;;;8.00;98.00;;;;;;5031436;28;20490;-65
2021/10/20 01:44:08;;;;;;;1.83;1.10;;;8.00;98.00;;;;;;5031589;28;20459;-66
2021/10/20 01:46:35;;;;;;;1.40;1.10;;;8.10;98.00;;;;;;5013948;28;20455;-66
2021/10/20 01:49:03;;;;;;;1.20;1.00;;;8.10;98.00;;;;;;5031382;28;20519;-66
2021/10/20 01:51:30;;;;;;;1.20;1.10;;;8.10;98.00;;;;;;5031320;28;20461;-65
2021/10/20 01:53:57;;;;;;;1.20;1.10;;;8.20;98.00;;;;;;5014079;28;20542;-65
2021/10/20 01:56:25;;;;;;;1.30;1.00;;;8.10;98.00;;;;;;5031257;28;20456;-65
2021/10/20 01:58:52;;;;;;;1.60;1.30;;;8.10;98.00;;;;;;5031180;28;20457;-66
2021/10/20 02:01:20;;;;;;;1.20;1.10;;;8.00;98.00;;;;;;5031410;28;20521;-65
2021/10/20 02:03:47;;;;;;;1.30;1.10;;;8.00;98.00;;;;;;5031398;28;20457;-65
2021/10/20 02:06:18;;;;;;;1.20;1.07;;;8.00;98.00;;;;;;5031293;28;20546;-65
2021/10/20 02:08:45;;;;;;;1.37;1.10;;;7.90;98.00;;;;;;5013704;28;21083;-65
2021/10/20 02:11:14;;;;;;;1.40;1.10;;;7.90;98.00;;;;;;5031329;28;20459;-66
2021/10/20 02:13:42;;;;;;;1.60;1.50;;;7.90;98.00;;;;;;5031316;28;20589;-66
2021/10/20 02:16:09;;;;;;;1.20;1.00;;;7.90;98.00;;;;;;5031104;28;20496;-65
2021/10/20 02:18:37;;;;;;;1.20;1.10;;;7.90;98.00;;;;;;5031334;28;20955;-66
2021/10/20 02:21:04;;;;;;;1.20;1.10;;;8.00;98.00;;;;;;5030933;28;20460;-66
2021/10/20 02:23:32;;;;;;;1.20;1.00;;;8.00;98.00;;;;;;5031017;28;20882;-65
2021/10/20 02:25:59;;;;;;;2.00;1.10;;;8.00;98.00;;;;;;5031036;28;20524;-65
2021/10/20 02:28:26;;;;;;;1.57;1.00;;;8.00;98.00;;;;;;5030791;28;20489;-65
2021/10/20 02:30:54;;;;;;;1.30;1.13;;;7.90;98.00;;;;;;5013689;28;20994;-65
2021/10/20 02:33:21;;;;;;;1.77;1.50;;;7.90;98.00;;;;;;5031200;28;21029;-65
2021/10/20 02:35:49;;;;;;;2.83;1.20;;;7.90;98.00;;;;;;5013535;28;20816;-66
2021/10/20 02:38:17;;;;;;;1.30;1.10;;;7.90;98.00;;;;;;5031023;28;20455;-65
2021/10/20 02:40:44;;;;;;;1.20;1.00;;;7.90;98.00;;;;;;5013882;28;20549;-65
2021/10/20 02:43:15;;;;;;;1.83;1.43;;;7.90;98.00;;;;;;5035347;28;20460;-65
2021/10/20 02:45:42;;;;;;;1.80;1.30;;;7.90;98.00;;;;;;5035072;28;20520;-65
2021/10/20 02:48:11;;;;;;;1.20;1.00;;;7.90;98.00;;;;;;5034904;28;20897;-65
2021/10/20 02:50:38;;;;;;;1.20;1.00;;;7.90;98.00;;;;;;5034560;28;20489;-65
2021/10/20 02:53:05;;;;;;;1.30;1.10;;;8.00;98.00;;;;;;5034842;28;20487;-65
2021/10/20 02:55:32;;;;;;;1.20;1.10;;;7.90;98.00;;;;;;5034705;28;20455;-65
2021/10/20 02:57:59;;;;;;;1.30;1.20;;;7.90;98.00;;;;;;5017171;28;20961;-65
2021/10/20 03:00:26;;;;;;;1.20;1.10;;;7.70;98.00;;;;;;5017196;28;20493;-65
2021/10/20 03:02:53;;;;;;;1.53;1.00;;;7.70;98.00;;;;;;5034366;28;20840;-65
2021/10/20 03:05:22;;;;;;;1.37;1.17;;;7.80;98.00;;;;;;5016893;28;20461;-66
2021/10/20 03:07:50;;;;;;;1.20;1.10;;;7.80;98.00;;;;;;5016926;28;20479;-66
2021/10/20 03:10:18;;;;;;;1.93;1.67;;;7.90;98.00;;;;;;5034252;28;20829;-65
2021/10/20 03:12:45;;;;;;;1.23;1.00;;;7.80;98.00;;;;;;5034455;28;20490;-66
2021/10/20 03:15:14;;;;;;;1.20;1.20;;;8.00;98.00;;;;;;5034387;28;20490;-65
2021/10/20 03:17:41;;;;;;;2.90;1.27;;;7.90;98.00;;;;;;5034286;28;20493;-66
2021/10/20 03:20:10;;;;;;;1.43;1.07;;;7.80;98.00;;;;;;5034248;28;20464;-66
2021/10/20 03:22:42;;;;;;;1.20;1.10;;;7.80;98.00;;;;;;5034264;28;20540;-65
2021/10/20 03:25:10;;;;;;;1.40;1.23;;;7.80;98.00;;;;;;5034179;28;20601;-65
2021/10/20 03:27:42;;;;;;;1.30;1.20;;;7.80;98.00;;;;;;5034102;28;20489;-66
2021/10/20 03:30:09;;;;;;;1.97;1.13;;;7.70;98.00;;;;;;5033902;28;20845;-65
2021/10/20 03:32:36;;;;;;;1.20;1.10;;;7.60;98.00;;;;;;5033891;28;20535;-65
2021/10/20 03:35:06;;;;;;;2.17;1.37;;;7.70;98.00;;;;;;5034029;28;20462;-66
2021/10/20 03:37:33;;;;;;;1.20;1.00;;;7.60;98.00;;;;;;5034031;28;20458;-65
2021/10/20 03:40:01;;;;;;;1.30;1.20;;;7.60;98.00;;;;;;5033563;28;20549;-65
2021/10/20 03:42:29;;;;;;;1.20;1.00;;;7.60;98.00;;;;;;5033923;28;20454;-65
2021/10/20 03:44:56;;;;;;;2.73;1.27;;;7.60;98.00;;;;;;5033994;28;20510;-65
2021/10/20 03:47:24;;;;;;;1.20;1.00;;;7.50;98.00;;;;;;5033896;28;20505;-65
2021/10/20 03:49:51;;;;;;;1.30;1.20;;;7.50;98.00;;;;;;5033573;28;20521;-66
2021/10/20 03:52:19;;;;;;;1.20;1.00;;;7.40;98.00;;;;;;5032982;28;20509;-65
2021/10/20 03:54:46;;;;;;;1.50;1.10;;;7.30;98.00;;;;;;5033805;28;20875;-65
2021/10/20 03:57:14;;;;;;;1.20;1.00;;;7.30;98.00;;;;;;5033872;28;20862;-65
2021/10/20 03:59:43;;;;;;;1.20;1.00;;;7.30;98.00;;;;;;5033508;28;20531;-65
2021/10/20 04:02:10;;;;;;;1.20;1.00;;;7.40;98.00;;;;;;5033666;28;20468;-66
2021/10/20 04:04:38;;;;;;;1.20;1.00;;;7.20;98.00;;;;;;5033513;28;20490;-65
2021/10/20 04:07:06;;;;;;;1.20;1.00;;;7.10;98.00;;;;;;5033524;28;20493;-65
2021/10/20 04:09:33;;;;;;;1.30;1.00;;;7.20;98.00;;;;;;5015816;28;20538;-65
2021/10/20 04:12:00;;;;;;;1.20;1.00;;;7.20;98.00;;;;;;5033381;28;20539;-66
2021/10/20 04:14:29;;;;;;;1.30;1.10;;;7.10;98.00;;;;;;5033301;28;20813;-65
2021/10/20 04:16:57;;;;;;;2.13;1.57;;;7.10;98.00;;;;;;5033191;28;20829;-65
2021/10/20 04:19:23;;;;;;;1.20;1.00;;;7.10;98.00;;;;;;5033016;28;20455;-65
2021/10/20 04:21:50;;;;;;;1.20;1.20;;;7.20;98.00;;;;;;5033090;28;20489;-65
2021/10/20 04:24:17;;;;;;;1.20;1.10;;;7.30;98.00;;;;;;5015338;28;20482;-65
2021/10/20 04:26:45;;;;;;;1.40;1.20;;;7.40;98.00;;;;;;5033037;28;20462;-65
2021/10/20 04:29:12;;;;;;;1.40;1.27;;;7.30;98.00;;;;;;5032814;28;20585;-65
2021/10/20 04:31:40;;;;;;;1.53;1.30;;;7.20;98.00;;;;;;5032735;28;20497;-66
2021/10/20 04:34:07;;;;;;;1.30;1.20;;;7.10;98.00;;;;;;5033036;28;20450;-65
2021/10/20 04:36:37;;;;;;;1.20;1.00;;;7.00;98.00;;;;;;5032804;28;20462;-65
2021/10/20 04:39:05;;;;;;;1.80;1.10;;;7.00;98.00;;;;;;5032749;28;20478;-66
2021/10/20 04:41:33;;;;;;;1.20;1.10;;;7.10;98.00;;;;;;5015221;28;20461;-65
2021/10/20 04:44:00;;;;;;;1.20;0.97;;;7.10;98.00;;;;;;5032619;28;20816;-65
2021/10/20 04:46:27;;;;;;;1.40;1.37;;;7.00;98.00;;;;;;5015138;28;20447;-65
2021/10/20 04:48:56;;;;;;;1.20;1.10;;;7.10;98.00;;;;;;5032698;28;20466;-65
2021/10/20 04:51:23;;;;;;;1.60;1.30;;;7.00;98.00;;;;;;5032440;28;20490;-65
2021/10/20 04:53:50;;;;;;;1.20;1.00;;;6.90;98.00;;;;;;5032548;28;20457;-65
2021/10/20 04:56:17;;;;;;;1.30;1.10;;;7.00;98.00;;;;;;5032665;28;20464;-65
2021/10/20 04:58:44;;;;;;;1.37;1.03;;;7.00;98.00;;;;;;5032501;28;20843;-65
2021/10/20 05:01:11;;;;;;;1.20;0.93;;;6.90;98.00;;;;;;5014742;28;20457;-64
2021/10/20 05:03:38;;;;;;;1.20;1.00;;;6.80;98.00;;;;;;5032192;28;20563;-65
2021/10/20 05:06:07;;;;;;;1.20;1.00;;;6.70;98.00;;;;;;5014673;28;20460;-64
2021/10/20 05:08:34;;;;;;;1.97;1.33;;;6.80;98.00;;;;;;5032218;28;20827;-65
2021/10/20 05:11:01;;;;;;;1.40;1.10;;;6.70;98.00;;;;;;5032180;28;20620;-65
2021/10/20 05:13:29;;;;;;;1.20;1.00;;;6.60;98.00;;;;;;5032309;28;20515;-65
2021/10/20 05:15:56;;;;;;;1.30;1.20;;;6.60;98.00;;;;;;5014906;28;20461;-65
2021/10/20 05:18:24;;;;;;;1.30;1.20;;;6.80;98.00;;;;;;5015194;28;20710;-65
2021/10/20 05:20:52;;;;;;;1.20;1.10;;;6.90;98.00;;;;;;5032286;28;20519;-65
2021/10/20 05:23:21;;;;;;;1.30;1.17;;;6.80;98.00;;;;;;5032193;28;20882;-65
2021/10/20 05:25:48;;;;;;;1.40;1.30;;;6.80;98.00;;;;;;5032134;28;20464;-64
2021/10/20 05:28:15;;;;;;;1.27;1.23;;;6.90;98.00;;;;;;5031859;28;20506;-65
2021/10/20 05:30:42;;;;;;;1.20;1.00;;;6.80;98.00;;;;;;5014235;28;20517;-65
2021/10/20 05:33:09;;;;;;;1.50;1.10;;;6.80;98.00;;;;;;5031818;28;20495;-65
2021/10/20 05:35:37;;;;;;;1.20;1.00;;;6.80;98.00;;;;;;5031754;28;20488;-65
2021/10/20 05:38:04;;;;;;;1.43;1.13;;;6.70;98.00;;;;;;5031686;28;20816;-65
2021/10/20 05:40:34;;;;;;;1.30;1.10;;;6.70;98.00;;;;;;5031485;28;20459;-65
2021/10/20 05:43:01;;;;;;;1.20;1.00;;;6.80;98.00;;;;;;5031872;28;20567;-65
2021/10/20 05:45:28;;;;;;;1.47;1.10;;;6.90;98.00;;;;;;5013867;28;20540;-65
2021/10/20 05:47:56;;;;;;;3.53;1.40;;;7.00;98.00;;;;;;5031527;28;20812;-65
2021/10/20 05:50:23;;;;;;;1.20;1.10;;;7.00;98.00;;;;;;5031315;28;20482;-64
2021/10/20 05:52:50;;;;;;;2.27;1.53;;;7.00;98.00;;;;;;5031432;28;20494;-65
2021/10/20 05:55:17;;;;;;;1.20;1.00;;;7.00;98.00;;;;;;5031446;28;20881;-65
2021/10/20 05:57:50;;;;;;;1.50;1.30;;;7.00;98.00;;;;;;5031448;28;20497;-64
2021/10/20 06:00:17;;;;;;;1.20;1.10;;;7.00;98.00;;;;;;5031200;28;20468;-65
2021/10/20 06:02:45;;;;;;;1.30;1.03;;;7.00;98.00;;;;;;5031331;28;20486;-65
2021/10/20 06:05:12;;;;;;;2.33;1.37;;;7.10;98.00;;;;;;5031234;28;20501;-65
2021/10/20 06:07:40;;;;;;;1.20;1.07;;;7.20;98.00;;;;;;5031216;28;20884;-64
2021/10/20 06:10:09;;;;;;;1.20;1.00;;;7.20;98.00;;;;;;5031188;28;20580;-65
2021/10/20 06:12:36;;;;;;;1.30;1.20;;;7.10;98.00;;;;;;5031180;28;20455;-66
2021/10/20 06:15:06;;;;;;;1.30;1.20;;;7.10;98.00;;;;;;5031074;28;20458;-65
2021/10/20 06:17:33;;;;;;;1.20;1.10;;;7.10;98.00;;;;;;5030797;28;20552;-64
2021/10/20 06:20:02;;;;;;;1.20;1.10;;;6.90;98.00;;;;;;5031002;28;20556;-65
2021/10/20 06:22:29;;;;;;;1.20;1.00;;;7.00;98.00;;;;;;5030596;28;20857;-65
2021/10/20 06:24:57;;;;;;;1.50;1.30;;;7.00;98.00;;;;;;5031060;28;20467;-65
2021/10/20 06:27:25;;;;;;;1.20;1.10;;;7.10;98.00;;;;;;5030954;28;20523;-64
2021/10/20 06:29:55;;;;;;;1.30;1.20;;;7.20;98.00;;;;;;5030816;28;20473;-65
2021/10/20 06:32:23;;;;;;;2.40;1.30;;;7.20;98.00;;;;;;5030987;28;21010;-65
2021/10/20 06:34:54;;;;;;;1.80;1.43;;;7.10;98.00;;;;;;5031049;28;20458;-65
2021/10/20 06:37:21;;;;;;;1.30;1.20;;;7.20;98.00;;;;;;5031124;28;20470;-64
2021/10/20 06:39:47;;;;;;;1.40;1.40;;;7.10;98.00;;;;;;5031328;28;20872;-65
2021/10/20 06:42:15;;;;;;;1.40;1.30;;;7.10;98.00;;;;;;5031163;28;20527;-64
2021/10/20 06:44:41;;;;;;;2.90;1.47;;;7.10;98.00;;;;;;5030644;28;21036;-65
2021/10/20 06:47:08;;;;;;;1.20;1.00;;;7.00;98.00;;;;;;5030958;28;20543;-65
2021/10/20 06:49:37;;;;;;;1.40;1.10;;;7.00;98.00;;;;;;5013512;28;20523;-64
2021/10/20 06:52:04;;;;;;;2.23;1.53;;;7.00;98.00;;;;;;5030728;28;20537;-65
2021/10/20 06:54:31;;;;;;;1.40;1.20;;;7.10;98.00;;;;;;5030780;28;20576;-64
2021/10/20 06:56:58;;;;;;;1.20;1.03;;;7.20;98.00;;;;;;5030773;28;20540;-64
2021/10/20 06:59:25;;;;;;;1.90;1.27;;;7.20;98.00;;;;;;5030578;28;20805;-65
2021/10/20 07:01:54;;;;;;;1.20;1.00;;;7.30;98.00;;;;;;5030698;28;20554;-65
2021/10/20 07:04:21;;;;;;;1.20;1.00;;;7.30;98.00;;;;;;5012811;28;20542;-64
2021/10/20 07:06:51;;;;;;;1.30;1.10;;;7.40;98.00;;;;;;5030900;28;20463;-65
2021/10/20 07:09:18;;;;;;;1.20;1.10;;;7.30;98.00;;;;;;5030673;28;20472;-65
2021/10/20 07:11:45;;;;;;;1.40;1.40;;;7.30;98.00;;;;;;5030474;28;20547;-65
2021/10/20 07:14:12;;;;;;;1.20;1.10;;;7.40;98.00;;;;;;5030662;28;20490;-64
2021/10/20 07:16:40;;;;;;;1.80;1.30;;;7.60;98.00;;;;;;5030670;28;20518;-64
2021/10/20 07:19:08;;;;;;;1.43;1.30;;;7.60;98.00;;;;;;5012906;28;20606;-65
2021/10/20 07:21:35;;;;;;;1.20;1.10;;;7.60;98.00;;;;;;5030378;28;20951;-65
2021/10/20 07:24:04;;;;;;;1.30;1.30;;;7.50;98.00;;;;;;5030470;28;20933;-64
2021/10/20 07:26:32;;;;;;;1.20;1.00;;;7.50;98.00;;;;;;5030453;28;20455;-66
2021/10/20 07:28:59;;;;;;;1.20;1.00;;;7.70;98.00;;;;;;5032614;28;20974;-65
2021/10/20 07:31:29;;;;;;;2.17;1.30;;;7.90;98.00;;;;;;5034136;28;20520;-64
2021/10/20 07:33:56;;;;;;;1.30;1.20;;;8.10;98.00;;;;;;5034045;28;20458;-65
2021/10/20 07:36:23;;;;;;;1.20;1.07;;;8.30;98.00;;;;;;5033902;28;20453;-65
2021/10/20 07:38:50;;;;;;;1.70;1.27;;;8.20;98.00;;;;;;5033863;28;20486;-65
2021/10/20 07:41:19;;;;;;;1.20;1.00;;;8.30;98.00;;;;;;5033953;28;20512;-64
2021/10/20 07:43:46;;;;;;;1.20;1.00;;;8.40;98.00;;;;;;5033668;28;20519;-65
2021/10/20 07:46:12;;;;;;;1.60;1.57;;;8.50;98.00;;;;;;5034015;28;20461;-64
2021/10/20 07:48:39;;;;;;;1.20;1.10;;;8.60;98.00;;;;;;5033809;28;20487;-64
2021/10/20 07:51:06;;;;;;;1.70;1.17;;;8.70;98.00;;;;;;5033691;28;20517;-64
2021/10/20 07:53:33;;;;;;;1.30;1.20;;;8.70;98.00;;;;;;5033810;28;20489;-65
2021/10/20 07:56:00;;;;;;;1.53;1.20;;;8.70;98.00;;;;;;5033705;28;20494;-65
2021/10/20 07:58:29;;;;;;;1.70;1.20;;;8.80;98.00;;;;;;5033817;28;20549;-65
2021/10/20 08:00:55;;;;;;;1.93;1.40;;;8.90;98.00;;;;;;5033777;28;20467;-65
2021/10/20 08:03:22;;;;;;;1.93;1.90;;;9.00;98.00;;;;;;5033731;28;20470;-65
2021/10/20 08:05:49;;;;;;;1.83;1.60;;;9.20;98.00;;;;;;5033482;28;20742;-64
2021/10/20 08:08:16;;;;;;;1.73;1.67;;;9.30;98.00;;;;;;5033587;28;20514;-65
2021/10/20 08:10:43;;;;;;;2.33;1.57;;;9.50;98.00;;;;;;5033554;28;20623;-65
2021/10/20 08:13:10;;;;;;;2.40;2.00;;;9.60;98.00;;;;;;5033507;28;20492;-65
2021/10/20 08:15:39;;;;;;;3.83;1.80;;;9.70;98.00;;;;;;5033354;28;20515;-65
2021/10/20 08:18:07;;;;;;;1.53;1.20;;;9.90;98.00;;;;;;5033301;28;20511;-65
2021/10/20 08:20:35;;;;;;;1.10;1.10;;;10.00;98.00;;;;;;5033151;28;20484;-65
2021/10/20 08:23:04;;;;;;;1.50;1.40;;;10.00;98.00;;;;;;5033123;28;20529;-65
2021/10/20 08:25:34;;;;;;;1.77;1.33;;;10.10;98.00;;;;;;5032939;28;20464;-64
2021/10/20 08:28:02;;;;;;;1.33;1.20;;;10.20;98.00;;;;;;5032885;28;20539;-65
2021/10/20 08:30:29;;;;;;;2.03;1.03;;;10.30;98.00;;;;;;5032688;28;20561;-65
2021/10/20 08:32:58;;;;;;;1.73;1.20;;;10.50;98.00;;;;;;5033133;28;20858;-65
2021/10/20 08:35:26;;;;;;;1.50;1.20;;;10.70;98.00;;;;;;5032779;28;20484;-65
2021/10/20 08:37:56;;;;;;;1.33;1.30;;;10.90;98.00;;;;;;5032835;28;20885;-66
2021/10/20 08:40:25;;;;;;;3.37;1.87;;;11.00;98.00;;;;;;5032396;28;20552;-65
2021/10/20 08:42:52;;;;;;;1.67;1.60;;;11.20;98.00;;;;;;5032925;28;20451;-65
2021/10/20 08:45:19;;;;;;;1.97;1.43;;;11.50;98.00;;;;;;5032710;28;20794;-65
2021/10/20 08:47:47;;;;;;;1.50;1.43;;;11.70;98.00;;;;;;5015207;28;20503;-65
2021/10/20 08:50:21;;;;;;;1.23;1.10;;;12.00;98.00;;;;;;5032557;28;20853;-65
2021/10/20 08:52:48;;;;;;;1.30;1.20;;;12.20;98.00;;;;;;5032608;28;20507;-66
2021/10/20 08:55:17;;;;;;;1.30;1.20;;;12.40;98.00;;;;;;5032360;28;20955;-65
2021/10/20 08:57:45;;;;;;;1.63;1.63;;;12.50;98.00;;;;;;5032578;28;20467;-65
2021/10/20 09:00:14;;;;;;;3.20;2.00;;;12.70;98.00;;;;;;5032597;28;20453;-65
2021/10/20 09:02:42;;;;;;;1.20;1.10;;;12.90;98.00;;;;;;5032579;28;20462;-65
2021/10/20 09:05:13;;;;;;;1.70;1.60;;;13.10;98.00;;;;;;5032316;28;20514;-65
2021/10/20 09:07:43;;;;;;;1.20;1.10;;;13.30;98.00;;;;;;5032498;28;20507;-65
2021/10/20 09:10:10;;;;;;;3.10;1.33;;;13.60;98.00;;;;;;5014542;28;20523;-66
2021/10/20 09:12:40;;;;;;;1.30;1.20;;;14.00;98.00;;;;;;5032297;28;20520;-65
2021/10/20 09:15:09;;;;;;;1.77;1.40;;;14.30;98.00;;;;;;5032114;28;20538;-65
2021/10/20 09:17:50;;;;;;;1.73;1.43;;;14.60;98.00;;;;;;5032248;28;20451;-65
2021/10/20 09:20:26;;;;;;;1.93;1.63;;;14.80;98.00;;;;;;5032207;28;20953;-66
2021/10/20 09:23:04;;;;;;;1.20;1.10;;;14.90;98.00;;;;;;5032358;28;20508;-65
2021/10/20 09:25:35;;;;;;;1.60;1.43;;;15.10;98.00;;;;;;5031803;28;20465;-65
2021/10/20 09:28:03;;;;;;;1.57;1.50;;;15.40;98.00;;;;;;5032032;28;20478;-65
2021/10/20 09:30:30;;;;;;;1.73;1.47;;;15.60;98.00;;;;;;5031843;28;20485;-66
2021/10/20 09:32:58;;;;;;;1.50;1.47;;;15.90;98.00;;;;;;5031928;28;20531;-65
2021/10/20 09:35:28;;;;;;;1.70;1.50;;;16.10;98.00;;;;;;5031715;28;20548;-65
2021/10/20 09:37:58;;;;;;;1.90;1.53;;;16.30;98.00;;;;;;5031925;28;20458;-65
2021/10/20 09:40:32;;;;;;;1.90;1.30;;;16.50;98.00;;;;;;5031610;28;20488;-66
2021/10/20 09:42:59;;;;;;;1.30;1.27;;;16.60;98.00;;;;;;5031611;28;20456;-65
2021/10/20 09:45:31;;;;;;;1.37;1.20;;;16.80;98.00;;;;;;5031523;28;20467;-65
2021/10/20 09:48:13;;;;;;;4.13;1.47;;;16.80;98.00;;;;;;5031573;28;20876;-65
2021/10/20 09:50:41;;;;;;;1.63;1.27;;;16.90;98.00;;;;;;5028067;28;20481;-66
2021/10/20 09:53:08;;;;;;;1.30;1.20;;;17.10;98.00;;;;;;5031477;28;20539;-66
2021/10/20 09:55:36;;;;;;;1.73;1.30;;;17.20;98.00;;;;;;5031408;28;20520;-65
2021/10/20 09:58:12;;;;;;;1.20;1.20;;;17.40;98.00;;;;;;5031422;28;20465;-66
2021/10/20 10:00:40;;;;;;;2.10;1.60;;;17.80;98.00;;;;;;5014994;28;20870;-65
2021/10/20 10:03:08;;;;;;;1.20;1.20;;;18.10;97.40;;;;;;5031421;28;20451;-66
2021/10/20 10:05:38;;;;;;;1.60;1.40;;;18.40;95.90;;;;;;5013848;28;20544;-66
2021/10/20 10:08:05;;;;;;;1.93;1.57;;;18.60;95.10;;;;;;5031211;28;20796;-65
2021/10/20 10:10:33;;;;;;;1.57;1.30;;;18.90;91.80;;;;;;5031079;28;20498;-66
2021/10/20 10:13:05;;;;;;;1.50;1.50;;;18.90;93.10;;;;;;4997414;28;20517;-66
2021/10/20 10:15:38;;;;;;;1.43;1.40;;;19.00;91.60;;;;;;5031134;28;20937;-66
2021/10/20 10:18:06;;;;;;;1.87;1.33;;;19.10;93.00;;;;;;5030883;28;20458;-65
2021/10/20 10:20:39;;;;;;;1.60;1.33;;;19.20;92.50;;;;;;5031246;28;20459;-65
2021/10/20 10:23:07;;;;;;;2.20;1.87;;;19.40;91.40;;;;;;5013714;28;20946;-66
2021/10/20 10:25:37;;;;;;;1.70;1.37;;;19.50;90.70;;;;;;5030905;28;20823;-66
2021/10/20 10:28:07;;;;;;;3.67;1.50;;;19.70;93.00;;;;;;5030898;28;20505;-65
2021/10/20 10:30:46;;;;;;;1.60;1.20;;;19.80;91.10;;;;;;5030990;28;20521;-66
2021/10/20 10:33:18;;;;;;;2.97;1.60;;;19.90;90.20;;;;;;5013757;28;20540;-66
2021/10/20 10:35:45;;;;;;;1.27;1.17;;;19.90;90.70;;;;;;5030929;28;20545;-65
2021/10/20 10:38:14;;;;;;;1.70;1.20;;;19.90;89.60;;;;;;5031113;28;20516;-66
2021/10/20 10:40:40;;;;;;;1.60;1.53;;;19.90;89.40;;;;;;5031024;28;20975;-65
2021/10/20 10:43:12;;;;;;;1.37;1.23;;;20.10;91.60;;;;;;5031185;28;20451;-65
2021/10/20 10:45:39;;;;;;;1.93;1.60;;;20.10;89.80;;;;;;5030900;28;20458;-66
2021/10/20 10:48:08;;;;;;;1.63;1.47;;;20.00;89.60;;;;;;5030765;28;20459;-65
2021/10/20 10:50:41;;;;;;;1.30;1.30;;;20.00;91.10;;;;;;5030778;28;20552;-66
2021/10/20 10:53:10;;;;;;;2.30;1.70;;;20.00;91.90;;;;;;5030781;28;20569;-66
2021/10/20 10:55:38;;;;;;;1.50;1.27;;;19.90;91.40;;;;;;5013358;28;20451;-65
2021/10/20 10:58:18;;;;;;;1.73;1.50;;;19.80;90.60;;;;;;5030749;28;20512;-65
2021/10/20 11:00:48;;;;;;;1.50;1.50;;;19.70;91.20;;;;;;5030257;28;20477;-65
2021/10/20 11:03:33;;;;;;;1.40;1.23;;;19.80;92.60;;;;;;5034018;28;20459;-66
2021/10/20 11:06:03;;;;;;;2.10;1.80;;;19.80;92.50;;;;;;5016821;28;21125;-66
2021/10/20 11:08:30;;;;;;;1.43;1.37;;;20.00;92.20;;;;;;5034909;28;20454;-65
2021/10/20 11:10:58;;;;;;;1.73;1.57;;;20.00;92.40;;;;;;5034715;28;20925;-67
2021/10/20 11:13:26;;;;;;;1.77;1.33;;;20.10;92.60;;;;;;5034343;28;20486;-66
2021/10/20 11:15:55;;;;;;;1.73;1.50;;;20.00;92.90;;;;;;5034686;28;20463;-67
2021/10/20 11:18:24;;;;;;;1.40;1.33;;;20.00;92.60;;;;;;5034418;28;21030;-65
2021/10/20 11:20:54;;;;;;;2.33;1.60;;;20.10;92.70;;;;;;5034161;28;20465;-66
2021/10/20 11:23:21;;;;;;;1.43;1.43;;;20.30;92.80;;;;;;5034269;28;20482;-66
2021/10/20 11:25:51;;;;;;;1.50;1.43;;;20.50;91.90;;;;;;5034396;28;20555;-66
2021/10/20 11:28:18;;;;;;;1.53;1.30;;;20.60;92.50;;;;;;5034141;28;20490;-66
2021/10/20 11:30:46;;;;;;;1.50;1.40;;;20.40;91.30;;;;;;5033970;28;20454;-66
2021/10/20 11:33:15;;;;;;;1.70;1.40;;;20.40;92.60;;;;;;5034047;28;20860;-66
2021/10/20 11:35:47;;;;;;;1.40;1.37;;;20.30;93.70;;;;;;5034368;28;20490;-66
2021/10/20 11:38:15;;;;;;;1.60;1.40;;;20.10;92.50;;;;;;5033983;28;20988;-66
2021/10/20 11:40:45;;;;;;;1.43;1.17;;;20.30;92.50;;;;;;5033880;28;20451;-66
2021/10/20 11:43:18;;;;;;;1.57;1.50;;;20.40;92.00;;;;;;5033958;28;20458;-66
2021/10/20 11:45:47;;;;;;;1.50;1.47;;;20.80;92.00;;;;;;5033799;28;20462;-66
2021/10/20 11:48:18;;;;;;;1.60;1.40;;;21.00;92.60;;;;;;5033848;28;20465;-66
2021/10/20 11:50:49;;;;;;;1.30;1.20;;;21.20;92.10;;;;;;5033765;28;20465;-66
2021/10/20 11:53:16;;;;;;;1.63;1.47;;;21.40;90.40;;;;;;5033623;28;20957;-67
2021/10/20 11:55:43;;;;;;;1.83;1.50;;;21.60;91.20;;;;;;5033721;28;20496;-69
2021/10/20 11:58:18;;;;;;;3.20;1.40;;;21.80;90.00;;;;;;5033696;28;20520;-68
2021/10/20 12:00:54;;;;;;;2.17;1.60;;;21.80;89.70;;;;;;5033622;28;20536;-69
2021/10/20 12:03:28;;;;;;;1.40;1.37;;;22.00;90.00;;;;;;5033967;28;20547;-69
2021/10/20 12:05:55;;;;;;;2.40;1.40;;;22.00;90.00;;;;;;5033702;28;20494;-69
2021/10/20 12:08:22;;;;;;;1.63;1.53;;;22.10;90.30;;;;;;5033664;28;20968;-69
2021/10/20 12:10:49;;;;;;;1.80;1.40;;;22.10;90.20;;;;;;5033460;28;20540;-69
2021/10/20 12:13:17;;;;;;;1.33;1.30;;;22.30;90.20;;;;;;5032657;28;20518;-69
2021/10/20 12:15:44;;;;;;;2.23;1.50;;;22.10;90.40;;;;;;5033354;28;20742;-68
2021/10/20 12:18:17;;;;;;;1.70;1.47;;;21.90;90.30;;;;;;5033411;28;20463;-69
2021/10/20 12:20:50;;;;;;;1.60;1.40;;;21.80;91.90;;;;;;5033057;28;20459;-69
2021/10/20 12:23:17;;;;;;;3.23;2.67;;;21.70;92.70;;;;;;5033290;28;20504;-69
2021/10/20 12:25:46;;;;;;;4.30;1.70;;;21.70;91.80;;;;;;5033328;28;20454;-69
2021/10/20 12:28:13;;;;;;;1.60;1.50;;;21.70;92.50;;;;;;5033075;28;20548;-69
2021/10/20 12:30:40;;;;;;;2.17;1.50;;;21.60;91.70;;;;;;5033022;28;20885;-69
2021/10/20 12:33:09;;;;;;;1.60;1.33;;;21.60;92.20;;;;;;5032990;28;20493;-69
2021/10/20 12:35:39;;;;;;;2.00;1.40;;;21.70;92.70;;;;;;5032858;28;20458;-69
2021/10/20 12:38:07;;;;;;;3.47;1.73;;;21.90;92.40;;;;;;5015513;28;20466;-69
2021/10/20 12:40:36;;;;;;;1.70;1.30;;;22.00;93.20;;;;;;5032778;28;20501;-69
2021/10/20 12:43:08;;;;;;;3.70;1.60;;;22.30;91.70;;;;;;5032891;28;20550;-69
2021/10/20 12:45:36;;;;;;;1.57;1.43;;;22.50;91.70;;;;;;5032740;28;20458;-69
2021/10/20 12:48:05;;;;;;;1.50;1.40;;;22.70;91.90;;;;;;5032797;28;20512;-69
2021/10/20 12:50:35;;;;;;;1.90;1.40;;;22.90;91.20;;;;;;5032586;28;20512;-69
2021/10/20 12:53:06;;;;;;;1.97;1.67;;;22.80;89.20;;;;;;5015159;28;20526;-69
2021/10/20 12:55:33;;;;;;;1.37;1.30;;;22.80;89.40;;;;;;5032672;28;20458;-69
2021/10/20 12:58:01;;;;;;;1.87;1.40;;;22.70;90.20;;;;;;5032578;28;20466;-69